createdAt,value
2018-04-26T00:00:09.895Z,4.00
2018-04-26T00:00:43.752Z,4.85
2018-04-26T00:01:17.621Z,5.82
2018-04-26T00:01:51.759Z,5.10
2018-04-26T00:02:25.609Z,4.57
2018-04-26T00:02:59.479Z,4.22
2018-04-26T00:03:33.330Z,4.50
2018-04-26T00:04:07.178Z,4.15
2018-04-26T00:04:41.044Z,3.83
2018-04-26T00:05:15.063Z,3.62
2018-04-26T00:05:48.906Z,4.15
2018-04-26T00:06:22.759Z,4.10
2018-04-26T00:06:56.600Z,3.80
2018-04-26T00:07:30.669Z,4.28
2018-04-26T00:08:04.534Z,4.65
2018-04-26T00:08:38.387Z,5.00
2018-04-26T00:09:12.326Z,5.22
2018-04-26T00:09:46.227Z,4.40
2018-04-26T00:10:20.102Z,4.47
2018-04-26T00:10:53.961Z,4.57
2018-04-26T00:11:27.809Z,5.12
2018-04-26T00:12:01.681Z,4.82
2018-04-26T00:12:35.598Z,4.75
2018-04-26T00:13:09.459Z,3.95
2018-04-26T00:13:43.356Z,4.20
2018-04-26T00:14:17.491Z,4.30
2018-04-26T00:14:51.392Z,3.75
2018-04-26T00:15:25.316Z,4.72
2018-04-26T00:15:59.482Z,4.22
2018-04-26T00:16:33.343Z,3.83
2018-04-26T00:17:07.191Z,3.83
2018-04-26T00:17:41.063Z,4.32
2018-04-26T00:18:14.949Z,4.30
2018-04-26T00:18:48.858Z,3.53
2018-04-26T00:19:22.860Z,4.65
2018-04-26T00:19:56.725Z,3.97
2018-04-26T00:20:30.636Z,4.43
2018-04-26T00:21:04.494Z,3.70
2018-04-26T00:21:38.360Z,4.47
2018-04-26T00:22:12.229Z,7.68
2018-04-26T00:22:46.111Z,6.70
2018-04-26T00:23:19.974Z,7.70
2018-04-26T00:23:53.827Z,6.05
2018-04-26T00:24:27.681Z,6.68
2018-04-26T00:25:01.523Z,6.32
2018-04-26T00:25:35.394Z,8.10
2018-04-26T00:26:09.247Z,8.43
2018-04-26T00:26:43.306Z,11.65
2018-04-26T00:27:17.151Z,11.68
2018-04-26T00:27:51.046Z,6.45
2018-04-26T00:28:24.913Z,5.07
2018-04-26T00:28:58.777Z,7.40
2018-04-26T00:29:32.646Z,7.68
2018-04-26T00:30:06.525Z,5.82
2018-04-26T00:30:40.375Z,4.85
2018-04-26T00:31:14.220Z,5.15
2018-04-26T00:31:48.090Z,7.00
2018-04-26T00:32:21.947Z,6.25
2018-04-26T00:32:56.180Z,4.60
2018-04-26T00:33:30.032Z,9.07
2018-04-26T00:34:03.884Z,7.93
2018-04-26T00:34:37.745Z,7.75
2018-04-26T00:35:11.724Z,7.00
2018-04-26T00:35:45.591Z,6.22
2018-04-26T00:36:19.478Z,5.47
2018-04-26T00:36:53.331Z,4.70
2018-04-26T00:37:27.216Z,4.62
2018-04-26T00:38:01.116Z,5.22
2018-04-26T00:38:34.977Z,6.37
2018-04-26T00:39:08.859Z,7.40
2018-04-26T00:39:42.726Z,6.12
2018-04-26T00:40:16.595Z,5.87
2018-04-26T00:40:50.460Z,7.20
2018-04-26T00:41:24.303Z,6.20
2018-04-26T00:41:58.154Z,6.28
2018-04-26T00:42:32.097Z,8.40
2018-04-26T00:43:05.969Z,6.70
2018-04-26T00:43:39.821Z,7.43
2018-04-26T00:44:13.740Z,6.40
2018-04-26T00:44:47.695Z,5.30
2018-04-26T00:45:21.590Z,5.07
2018-04-26T00:45:55.532Z,4.55
2018-04-26T00:46:29.385Z,4.72
2018-04-26T00:47:03.255Z,4.72
2018-04-26T00:47:37.208Z,4.50
2018-04-26T00:48:11.058Z,4.75
2018-04-26T00:48:44.939Z,4.65
2018-04-26T00:49:18.905Z,4.55
2018-04-26T00:49:52.871Z,4.20
2018-04-26T00:50:26.726Z,4.60
2018-04-26T00:51:00.697Z,4.82
2018-04-26T00:51:53.286Z,4.65
2018-04-26T00:52:27.208Z,5.07
2018-04-26T00:53:01.087Z,4.40
2018-04-26T00:53:34.961Z,5.35
2018-04-26T00:54:08.811Z,4.03
2018-04-26T00:54:42.808Z,4.25
2018-04-26T00:55:16.678Z,4.40
2018-04-26T00:55:50.536Z,4.82
2018-04-26T00:56:24.401Z,4.47
2018-04-26T00:56:58.288Z,4.53
2018-04-26T00:57:32.152Z,4.75
2018-04-26T00:58:06.171Z,4.70
2018-04-26T00:58:40.045Z,5.00
2018-04-26T00:59:14.470Z,4.65
2018-04-26T00:59:48.363Z,4.55
2018-04-26T01:00:22.281Z,4.80
2018-04-26T01:00:56.109Z,4.75
2018-04-26T01:01:29.966Z,4.75
2018-04-26T01:02:03.816Z,4.70
2018-04-26T01:02:37.673Z,4.72
2018-04-26T01:03:11.530Z,4.43
2018-04-26T01:03:45.416Z,4.37
2018-04-26T01:04:19.305Z,4.50
2018-04-26T01:04:53.235Z,5.03
2018-04-26T01:05:27.105Z,4.40
2018-04-26T01:06:01.124Z,4.45
2018-04-26T01:06:34.984Z,4.93
2018-04-26T01:07:08.843Z,4.68
2018-04-26T01:07:42.758Z,4.93
2018-04-26T01:08:16.692Z,4.30
2018-04-26T01:08:50.528Z,4.45
2018-04-26T01:09:24.378Z,4.50
2018-04-26T01:09:58.284Z,4.70
2018-04-26T01:10:32.137Z,5.20
2018-04-26T01:11:05.991Z,5.12
2018-04-26T01:11:39.849Z,4.93
2018-04-26T01:12:13.704Z,4.57
2018-04-26T01:12:47.567Z,4.60
2018-04-26T01:13:21.424Z,4.72
2018-04-26T01:13:55.319Z,4.50
2018-04-26T01:14:29.185Z,5.05
2018-04-26T01:15:03.041Z,5.00
2018-04-26T01:15:36.916Z,4.95
2018-04-26T01:16:10.800Z,5.18
2018-04-26T01:16:44.817Z,5.95
2018-04-26T01:17:18.662Z,5.35
2018-04-26T01:17:52.507Z,5.53
2018-04-26T01:18:26.603Z,4.62
2018-04-26T01:19:01.387Z,5.55
2018-04-26T01:19:35.237Z,5.03
2018-04-26T01:20:09.238Z,4.95
2018-04-26T01:20:43.091Z,4.60
2018-04-26T01:21:16.947Z,5.07
2018-04-26T01:21:51.029Z,4.80
2018-04-26T01:22:24.917Z,5.55
2018-04-26T01:22:58.789Z,5.35
2018-04-26T01:23:32.657Z,5.00
2018-04-26T01:24:06.533Z,5.35
2018-04-26T01:24:40.572Z,5.00
2018-04-26T01:25:14.783Z,5.25
2018-04-26T01:25:48.647Z,5.40
2018-04-26T01:26:22.772Z,5.22
2018-04-26T01:26:56.694Z,5.18
2018-04-26T01:27:30.560Z,5.00
2018-04-26T01:28:04.413Z,5.07
2018-04-26T01:28:38.267Z,5.00
2018-04-26T01:29:12.472Z,5.43
2018-04-26T01:29:46.333Z,5.57
2018-04-26T01:30:20.211Z,4.82
2018-04-26T01:30:54.064Z,5.30
2018-04-26T01:31:27.923Z,5.75
2018-04-26T01:32:01.788Z,4.90
2018-04-26T01:32:35.644Z,5.47
2018-04-26T01:33:09.520Z,5.80
2018-04-26T01:33:43.366Z,6.30
2018-04-26T01:34:17.235Z,4.95
2018-04-26T01:34:51.113Z,5.40
2018-04-26T01:35:24.964Z,5.40
2018-04-26T01:35:59.017Z,5.45
2018-04-26T01:36:39.035Z,5.43
2018-04-26T01:37:18.828Z,5.12
2018-04-26T01:37:52.883Z,5.45
2018-04-26T01:38:26.768Z,5.12
2018-04-26T01:39:00.643Z,4.65
2018-04-26T01:39:34.512Z,5.50
2018-04-26T01:40:08.450Z,6.00
2018-04-26T01:40:42.343Z,5.40
2018-04-26T01:41:16.188Z,6.00
2018-04-26T01:41:50.035Z,5.18
2018-04-26T01:42:23.875Z,4.97
2018-04-26T01:42:57.724Z,5.40
2018-04-26T01:43:31.623Z,5.80
2018-04-26T01:44:05.502Z,5.30
2018-04-26T01:44:39.369Z,5.07
2018-04-26T01:45:13.240Z,5.85
2018-04-26T01:45:47.097Z,5.87
2018-04-26T01:46:20.950Z,5.47
2018-04-26T01:46:54.807Z,6.03
2018-04-26T01:47:28.666Z,5.50
2018-04-26T01:48:02.672Z,6.50
2018-04-26T01:48:36.528Z,5.32
2018-04-26T01:49:10.671Z,5.50
2018-04-26T01:49:44.602Z,5.72
2018-04-26T01:50:19.393Z,5.43
2018-04-26T01:50:53.309Z,6.03
2018-04-26T01:51:27.180Z,5.80
2018-04-26T01:52:01.032Z,5.05
2018-04-26T01:52:34.885Z,6.07
2018-04-26T01:53:08.763Z,5.82
2018-04-26T01:53:42.634Z,5.75
2018-04-26T01:54:16.502Z,5.43
2018-04-26T01:54:50.370Z,7.25
2018-04-26T01:55:24.250Z,5.70
2018-04-26T01:55:58.129Z,5.65
2018-04-26T01:56:31.983Z,5.70
2018-04-26T01:57:05.948Z,5.47
2018-04-26T01:57:39.811Z,6.55
2018-04-26T01:58:13.718Z,5.12
2018-04-26T01:58:47.588Z,5.70
2018-04-26T01:59:21.713Z,5.90
2018-04-26T01:59:55.601Z,6.12
2018-04-26T02:00:29.452Z,5.87
2018-04-26T02:01:03.307Z,6.60
2018-04-26T02:01:37.164Z,5.68
2018-04-26T02:02:11.085Z,6.32
2018-04-26T02:02:44.938Z,5.15
2018-04-26T02:03:18.827Z,6.03
2018-04-26T02:03:52.995Z,5.85
2018-04-26T02:04:26.847Z,5.80
2018-04-26T02:05:00.738Z,6.43
2018-04-26T02:05:34.597Z,6.07
2018-04-26T02:06:08.456Z,6.05
2018-04-26T02:06:42.320Z,5.70
2018-04-26T02:07:16.190Z,5.90
2018-04-26T02:07:50.045Z,5.72
2018-04-26T02:08:23.896Z,6.20
2018-04-26T02:08:57.947Z,6.50
2018-04-26T02:09:31.800Z,6.68
2018-04-26T02:10:05.694Z,6.05
2018-04-26T02:10:39.718Z,5.65
2018-04-26T02:11:13.919Z,5.87
2018-04-26T02:11:47.784Z,5.90
2018-04-26T02:12:21.661Z,6.55
2018-04-26T02:12:55.519Z,6.22
2018-04-26T02:13:29.413Z,6.75
2018-04-26T02:14:03.305Z,6.32
2018-04-26T02:14:37.163Z,6.12
2018-04-26T02:15:11.032Z,6.20
2018-04-26T02:15:44.889Z,6.18
2018-04-26T02:16:18.811Z,6.85
2018-04-26T02:16:52.796Z,7.03
2018-04-26T02:17:26.650Z,5.93
2018-04-26T02:18:00.515Z,7.03
2018-04-26T02:18:34.406Z,6.87
2018-04-26T02:19:08.496Z,7.25
2018-04-26T02:19:42.561Z,7.07
2018-04-26T02:20:16.620Z,7.07
2018-04-26T02:20:50.665Z,6.28
2018-04-26T02:21:24.536Z,6.80
2018-04-26T02:21:58.542Z,6.10
2018-04-26T02:22:32.417Z,6.62
2018-04-26T02:23:06.457Z,6.65
2018-04-26T02:23:40.313Z,6.87
2018-04-26T02:24:14.434Z,6.82
2018-04-26T02:24:48.460Z,6.72
2018-04-26T02:25:22.319Z,6.80
2018-04-26T02:25:56.176Z,7.87
2018-04-26T02:26:30.137Z,6.85
2018-04-26T02:27:04.006Z,7.10
2018-04-26T02:27:37.878Z,6.85
2018-04-26T02:28:11.740Z,7.10
2018-04-26T02:28:45.803Z,7.20
2018-04-26T02:29:19.683Z,7.37
2018-04-26T02:29:53.547Z,7.10
2018-04-26T02:30:27.621Z,7.53
2018-04-26T02:31:01.474Z,6.57
2018-04-26T02:31:35.340Z,7.05
2018-04-26T02:32:09.384Z,6.60
2018-04-26T02:32:43.356Z,6.85
2018-04-26T02:33:17.229Z,7.32
2018-04-26T02:33:51.375Z,7.40
2018-04-26T02:34:25.226Z,7.60
2018-04-26T02:34:59.081Z,7.12
2018-04-26T02:35:33.056Z,7.12
2018-04-26T02:36:07.060Z,6.40
2018-04-26T02:36:40.928Z,7.47
2018-04-26T02:37:14.999Z,6.68
2018-04-26T02:37:48.866Z,6.32
2018-04-26T02:38:23.359Z,7.80
2018-04-26T02:38:57.250Z,8.07
2018-04-26T02:39:31.124Z,8.07
2018-04-26T02:40:05.165Z,6.50
2018-04-26T02:40:39.049Z,7.30
2018-04-26T02:41:13.039Z,7.68
2018-04-26T02:41:46.926Z,8.43
2018-04-26T02:42:20.796Z,6.65
2018-04-26T02:42:54.666Z,7.45
2018-04-26T02:43:28.527Z,8.48
2018-04-26T02:44:02.607Z,6.90
2018-04-26T02:44:36.480Z,7.87
2018-04-26T02:45:10.353Z,7.25
2018-04-26T02:45:44.226Z,6.62
2018-04-26T02:46:18.088Z,7.78
2018-04-26T02:46:51.954Z,6.85
2018-04-26T02:47:26.009Z,7.28
2018-04-26T02:47:59.984Z,6.97
2018-04-26T02:48:33.885Z,7.32
2018-04-26T02:49:07.737Z,7.20
2018-04-26T02:49:41.788Z,7.00
2018-04-26T02:50:15.655Z,7.40
2018-04-26T02:50:49.864Z,7.03
2018-04-26T02:51:23.731Z,7.07
2018-04-26T02:51:57.608Z,6.80
2018-04-26T02:52:31.467Z,6.85
2018-04-26T02:53:05.448Z,7.00
2018-04-26T02:53:39.303Z,7.90
2018-04-26T02:54:13.162Z,7.95
2018-04-26T02:54:47.003Z,6.85
2018-04-26T02:55:20.966Z,6.68
2018-04-26T02:55:54.847Z,8.60
2018-04-26T02:56:28.712Z,8.40
2018-04-26T02:57:03.021Z,7.22
2018-04-26T02:57:36.882Z,7.97
2018-04-26T02:58:10.829Z,6.60
2018-04-26T02:58:44.712Z,7.40
2018-04-26T02:59:18.939Z,7.03
2018-04-26T02:59:52.811Z,7.07
2018-04-26T03:00:26.681Z,7.47
2018-04-26T03:01:00.733Z,6.28
2018-04-26T03:01:34.655Z,7.45
2018-04-26T03:02:08.619Z,6.95
2018-04-26T03:02:42.533Z,7.43
2018-04-26T03:03:16.380Z,7.75
2018-04-26T03:03:50.483Z,7.00
2018-04-26T03:04:24.384Z,7.80
2018-04-26T03:04:58.240Z,7.18
2018-04-26T03:05:32.095Z,7.47
2018-04-26T03:06:05.982Z,7.70
2018-04-26T03:06:39.855Z,7.35
2018-04-26T03:07:13.734Z,7.25
2018-04-26T03:07:47.607Z,7.47
2018-04-26T03:08:21.739Z,6.40
2018-04-26T03:08:55.523Z,8.10
2018-04-26T03:09:29.409Z,6.72
2018-04-26T03:10:03.284Z,6.95
2018-04-26T03:10:37.163Z,7.62
2018-04-26T03:11:11.036Z,7.00
2018-04-26T03:11:44.920Z,8.05
2018-04-26T03:12:18.783Z,7.90
2018-04-26T03:12:52.739Z,7.72
2018-04-26T03:13:26.605Z,6.85
2018-04-26T03:14:00.452Z,7.35
2018-04-26T03:14:34.365Z,7.43
2018-04-26T03:15:08.223Z,7.47
2018-04-26T03:15:42.433Z,7.03
2018-04-26T03:16:16.692Z,6.95
2018-04-26T03:16:50.559Z,7.05
2018-04-26T03:17:24.422Z,6.93
2018-04-26T03:17:58.274Z,7.28
2018-04-26T03:18:32.144Z,7.78
2018-04-26T03:19:05.995Z,7.05
2018-04-26T03:19:39.847Z,6.82
2018-04-26T03:20:13.709Z,7.22
2018-04-26T03:20:47.678Z,6.90
2018-04-26T03:21:21.544Z,7.18
2018-04-26T03:21:55.437Z,7.80
2018-04-26T03:22:29.444Z,8.15
2018-04-26T03:23:03.443Z,7.40
2018-04-26T03:23:37.322Z,8.05
2018-04-26T03:24:11.171Z,7.40
2018-04-26T03:24:45.430Z,7.35
2018-04-26T03:25:19.852Z,7.65
2018-04-26T03:26:33.976Z,8.27
2018-04-26T03:27:07.851Z,7.35
2018-04-26T03:27:41.727Z,7.50
2018-04-26T03:28:15.776Z,7.30
2018-04-26T03:28:49.752Z,7.32
2018-04-26T03:29:23.611Z,7.82
2018-04-26T03:29:57.493Z,7.65
2018-04-26T03:30:31.352Z,8.25
2018-04-26T03:31:05.286Z,7.97
2018-04-26T03:31:39.248Z,7.03
2018-04-26T03:32:13.120Z,7.53
2018-04-26T03:32:46.973Z,7.32
2018-04-26T03:33:21.040Z,8.25
2018-04-26T03:33:54.911Z,7.35
2018-04-26T03:34:28.778Z,7.20
2018-04-26T03:35:02.663Z,8.05
2018-04-26T03:35:36.720Z,7.95
2018-04-26T03:36:10.583Z,7.60
2018-04-26T03:36:44.463Z,7.55
2018-04-26T03:37:18.494Z,6.75
2018-04-26T03:37:52.300Z,8.32
2018-04-26T03:38:26.167Z,7.87
2018-04-26T03:39:00.289Z,8.45
2018-04-26T03:39:34.149Z,8.23
2018-04-26T03:40:08.024Z,8.07
2018-04-26T03:40:41.952Z,8.00
2018-04-26T03:41:15.893Z,8.05
2018-04-26T03:41:49.896Z,8.27
2018-04-26T03:42:23.761Z,8.48
2018-04-26T03:42:57.654Z,7.82
2018-04-26T03:43:31.511Z,8.10
2018-04-26T03:44:05.758Z,7.95
2018-04-26T03:44:39.666Z,7.95
2018-04-26T03:45:13.528Z,8.40
2018-04-26T03:45:47.488Z,7.55
2018-04-26T03:46:21.437Z,8.85
2018-04-26T03:46:55.455Z,8.07
2018-04-26T03:47:29.330Z,8.30
2018-04-26T03:48:03.225Z,7.50
2018-04-26T03:48:37.124Z,7.25
2018-04-26T03:49:11.013Z,8.27
2018-04-26T03:49:44.892Z,7.62
2018-04-26T03:50:18.757Z,7.85
2018-04-26T03:50:52.620Z,7.50
2018-04-26T03:51:26.467Z,7.62
2018-04-26T03:52:00.356Z,7.03
2018-04-26T03:52:34.295Z,7.60
2018-04-26T03:53:08.149Z,8.20
2018-04-26T03:53:42.393Z,7.72
2018-04-26T03:54:16.234Z,8.48
2018-04-26T03:54:50.095Z,7.85
2018-04-26T03:55:23.966Z,7.47
2018-04-26T03:55:57.815Z,7.47
2018-04-26T03:56:31.759Z,8.23
2018-04-26T03:57:05.647Z,7.50
2018-04-26T03:57:39.495Z,7.90
2018-04-26T03:58:13.352Z,8.02
2018-04-26T03:58:47.227Z,8.00
2018-04-26T03:59:21.080Z,7.50
2018-04-26T04:00:00.850Z,7.62
2018-04-26T04:00:40.663Z,7.50
2018-04-26T04:01:20.252Z,8.32
2018-04-26T04:01:59.995Z,8.48
2018-04-26T04:02:39.572Z,8.07
2018-04-26T04:03:19.211Z,8.63
2018-04-26T04:03:58.848Z,8.20
2018-04-26T04:04:38.519Z,8.60
2018-04-26T04:05:18.163Z,8.15
2018-04-26T04:05:53.680Z,8.45
2018-04-26T04:06:27.747Z,8.73
2018-04-26T04:07:01.743Z,8.35
2018-04-26T04:07:35.695Z,8.05
2018-04-26T04:08:09.756Z,8.10
2018-04-26T04:08:43.625Z,8.00
2018-04-26T04:09:17.493Z,9.23
2018-04-26T04:09:51.355Z,8.75
2018-04-26T04:10:25.228Z,8.77
2018-04-26T04:10:59.095Z,8.20
2018-04-26T04:11:33.012Z,7.93
2018-04-26T04:12:06.873Z,8.27
2018-04-26T04:12:40.729Z,8.80
2018-04-26T04:13:14.899Z,8.48
2018-04-26T04:13:48.952Z,8.15
2018-04-26T04:14:22.781Z,8.30
2018-04-26T04:14:56.633Z,8.60
2018-04-26T04:15:30.483Z,8.88
2018-04-26T04:16:04.407Z,8.82
2018-04-26T04:16:38.277Z,8.23
2018-04-26T04:17:12.148Z,8.80
2018-04-26T04:17:46.059Z,8.93
2018-04-26T04:18:19.924Z,9.05
2018-04-26T04:18:53.783Z,9.00
2018-04-26T04:19:27.644Z,8.80
2018-04-26T04:20:01.526Z,9.15
2018-04-26T04:20:35.379Z,8.57
2018-04-26T04:21:09.426Z,9.32
2018-04-26T04:21:43.276Z,9.52
2018-04-26T04:22:17.315Z,8.43
2018-04-26T04:22:51.187Z,8.15
2018-04-26T04:23:25.065Z,8.65
2018-04-26T04:23:59.113Z,8.55
2018-04-26T04:24:33.212Z,9.38
2018-04-26T04:25:07.090Z,8.20
2018-04-26T04:25:40.956Z,9.60
2018-04-26T04:26:15.016Z,8.73
2018-04-26T04:26:48.881Z,9.00
2018-04-26T04:27:22.759Z,9.35
2018-04-26T04:27:56.838Z,10.80
2018-04-26T04:28:30.700Z,9.82
2018-04-26T04:29:04.603Z,10.10
2018-04-26T04:29:38.458Z,9.73
2018-04-26T04:30:12.326Z,9.40
2018-04-26T04:30:46.177Z,9.10
2018-04-26T04:31:20.178Z,9.35
2018-04-26T04:31:54.027Z,8.90
2018-04-26T04:32:27.910Z,10.52
2018-04-26T04:33:01.945Z,9.75
2018-04-26T04:33:35.892Z,9.00
2018-04-26T04:34:09.767Z,10.45
2018-04-26T04:34:43.700Z,9.48
2018-04-26T04:35:17.631Z,9.85
2018-04-26T04:35:51.528Z,9.63
2018-04-26T04:36:25.410Z,10.95
2018-04-26T04:36:59.284Z,10.38
2018-04-26T04:37:33.148Z,10.45
2018-04-26T04:38:07.091Z,9.68
2018-04-26T04:38:40.968Z,10.40
2018-04-26T04:39:14.839Z,9.65
2018-04-26T04:39:48.692Z,9.32
2018-04-26T04:40:22.584Z,10.63
2018-04-26T04:40:56.698Z,10.05
2018-04-26T04:41:30.683Z,9.13
2018-04-26T04:42:04.564Z,10.15
2018-04-26T04:42:38.473Z,9.90
2018-04-26T04:43:12.348Z,11.18
2018-04-26T04:43:46.231Z,10.45
2018-04-26T04:44:20.106Z,11.12
2018-04-26T04:44:53.961Z,9.43
2018-04-26T04:45:27.948Z,9.98
2018-04-26T04:46:02.094Z,10.43
2018-04-26T04:46:35.956Z,10.52
2018-04-26T04:47:09.847Z,10.60
2018-04-26T04:47:43.847Z,10.18
2018-04-26T04:48:17.698Z,10.05
2018-04-26T04:48:51.583Z,11.23
2018-04-26T04:49:25.543Z,9.57
2018-04-26T04:50:00.202Z,10.35
2018-04-26T04:50:34.115Z,10.95
2018-04-26T04:51:08.350Z,10.10
2018-04-26T04:51:42.333Z,10.13
2018-04-26T04:52:16.330Z,9.60
2018-04-26T04:52:50.215Z,10.98
2018-04-26T04:53:24.100Z,11.57
2018-04-26T04:53:57.992Z,9.85
2018-04-26T04:54:31.893Z,10.05
2018-04-26T04:55:05.957Z,10.50
2018-04-26T04:55:40.032Z,10.02
2018-04-26T04:56:13.894Z,10.43
2018-04-26T04:56:47.760Z,11.43
2018-04-26T04:57:21.617Z,10.30
2018-04-26T04:57:55.591Z,10.57
2018-04-26T04:58:29.470Z,11.75
2018-04-26T04:59:03.591Z,10.32
2018-04-26T04:59:37.458Z,10.45
2018-04-26T05:00:11.341Z,10.90
2018-04-26T05:00:45.248Z,10.45
2018-04-26T05:01:19.176Z,11.32
2018-04-26T05:01:53.031Z,10.63
2018-04-26T05:02:28.211Z,10.35
2018-04-26T05:03:02.076Z,11.70
2018-04-26T05:03:35.947Z,11.40
2018-04-26T05:04:09.846Z,11.40
2018-04-26T05:04:43.868Z,11.12
2018-04-26T05:05:17.739Z,11.68
2018-04-26T05:05:51.628Z,11.32
2018-04-26T05:06:25.492Z,11.40
2018-04-26T05:06:59.579Z,12.23
2018-04-26T05:07:33.650Z,11.70
2018-04-26T05:08:07.530Z,11.43
2018-04-26T05:08:41.386Z,12.30
2018-04-26T05:09:15.255Z,12.10
2018-04-26T05:09:49.110Z,11.20
2018-04-26T05:10:22.963Z,12.15
2018-04-26T05:10:56.911Z,10.98
2018-04-26T05:11:30.795Z,11.02
2018-04-26T05:12:04.652Z,12.45
2018-04-26T05:12:38.640Z,12.05
2018-04-26T05:13:13.064Z,11.75
2018-04-26T05:13:46.992Z,10.60
2018-04-26T05:14:20.856Z,12.40
2018-04-26T05:14:54.785Z,11.32
2018-04-26T05:15:28.676Z,12.23
2018-04-26T05:16:02.549Z,12.43
2018-04-26T05:16:36.520Z,11.90
2018-04-26T05:17:10.421Z,11.88
2018-04-26T05:17:44.318Z,12.77
2018-04-26T05:18:18.211Z,11.63
2018-04-26T05:18:52.231Z,12.68
2018-04-26T05:19:26.122Z,11.90
2018-04-26T05:20:00.047Z,12.13
2018-04-26T05:20:33.928Z,12.85
2018-04-26T05:21:07.808Z,12.75
2018-04-26T05:21:41.664Z,12.35
2018-04-26T05:22:15.552Z,11.45
2018-04-26T05:22:49.413Z,11.65
2018-04-26T05:23:23.882Z,12.37
2018-04-26T05:23:57.773Z,13.40
2018-04-26T05:24:31.669Z,13.13
2018-04-26T05:25:06.336Z,11.40
2018-04-26T05:25:40.249Z,12.80
2018-04-26T05:26:14.241Z,11.73
2018-04-26T05:26:48.092Z,12.95
2018-04-26T05:27:21.971Z,12.05
2018-04-26T05:27:55.835Z,12.27
2018-04-26T05:28:29.739Z,12.77
2018-04-26T05:29:03.726Z,12.50
2018-04-26T05:29:37.600Z,12.60
2018-04-26T05:30:11.582Z,13.38
2018-04-26T05:30:45.452Z,12.93
2018-04-26T05:31:19.328Z,13.68
2018-04-26T05:31:53.312Z,12.48
2018-04-26T05:32:27.166Z,12.13
2018-04-26T05:33:01.089Z,11.50
2018-04-26T05:33:35.104Z,11.82
2018-04-26T05:34:09.192Z,12.20
2018-04-26T05:34:43.135Z,12.43
2018-04-26T05:35:17.396Z,12.27
2018-04-26T05:35:51.321Z,11.70
2018-04-26T05:36:25.288Z,12.90
2018-04-26T05:36:59.289Z,13.00
2018-04-26T05:37:33.382Z,13.52
2018-04-26T05:38:07.283Z,12.40
2018-04-26T05:38:41.236Z,12.85
2018-04-26T05:39:15.244Z,11.82
2018-04-26T05:39:49.219Z,12.75
2018-04-26T05:40:23.085Z,12.93
2018-04-26T05:40:57.175Z,12.25
2018-04-26T05:41:31.062Z,12.70
2018-04-26T05:42:04.916Z,12.40
2018-04-26T05:42:39.161Z,12.50
2018-04-26T05:43:13.568Z,12.18
2018-04-26T05:43:47.444Z,12.15
2018-04-26T05:44:21.318Z,13.00
2018-04-26T05:44:55.207Z,12.98
2018-04-26T05:45:29.099Z,12.90
2018-04-26T05:46:03.164Z,13.05
2018-04-26T05:46:37.139Z,11.98
2018-04-26T05:47:11.228Z,12.80
2018-04-26T05:47:45.131Z,12.75
2018-04-26T05:48:19.105Z,13.77
2018-04-26T05:48:53.001Z,12.23
2018-04-26T05:49:26.976Z,11.60
2018-04-26T05:50:01.447Z,13.57
2018-04-26T05:50:36.967Z,14.25
2018-04-26T05:51:11.103Z,14.35
2018-04-26T05:51:45.064Z,13.05
2018-04-26T05:52:19.002Z,13.25
2018-04-26T05:52:52.888Z,12.45
2018-04-26T05:53:27.076Z,13.40
2018-04-26T05:54:01.521Z,12.30
2018-04-26T05:54:35.436Z,11.38
2018-04-26T05:55:09.365Z,12.57
2018-04-26T05:55:43.407Z,12.85
2018-04-26T05:56:17.387Z,12.43
2018-04-26T05:56:51.556Z,12.32
2018-04-26T05:57:25.427Z,11.55
2018-04-26T05:57:59.292Z,12.43
2018-04-26T05:58:33.191Z,13.02
2018-04-26T05:59:07.084Z,12.88
2018-04-26T05:59:40.967Z,12.18
2018-04-26T06:00:14.860Z,14.05
2018-04-26T06:00:48.763Z,12.55
2018-04-26T06:01:22.743Z,11.02
2018-04-26T06:01:56.628Z,11.20
2018-04-26T06:02:30.536Z,12.57
2018-04-26T06:03:04.404Z,12.00
2018-04-26T06:03:38.506Z,12.40
2018-04-26T06:04:12.303Z,13.43
2018-04-26T06:04:46.223Z,11.35
2018-04-26T06:05:20.097Z,11.27
2018-04-26T06:05:54.026Z,11.65
2018-04-26T06:06:27.889Z,11.93
2018-04-26T06:07:01.893Z,11.23
2018-04-26T06:07:35.758Z,11.30
2018-04-26T06:08:09.701Z,11.30
2018-04-26T06:08:43.577Z,12.02
2018-04-26T06:09:17.454Z,12.50
2018-04-26T06:09:51.471Z,10.95
2018-04-26T06:10:25.413Z,14.60
2018-04-26T06:10:59.402Z,11.05
2018-04-26T06:11:33.458Z,11.57
2018-04-26T06:12:07.364Z,10.82
2018-04-26T06:12:41.244Z,10.93
2018-04-26T06:13:15.150Z,10.00
2018-04-26T06:13:49.018Z,11.50
2018-04-26T06:14:22.928Z,10.25
2018-04-26T06:14:56.836Z,10.43
2018-04-26T06:15:31.025Z,10.50
2018-04-26T06:16:04.895Z,10.70
2018-04-26T06:16:39.508Z,11.10
2018-04-26T06:17:13.466Z,10.23
2018-04-26T06:17:47.278Z,10.55
2018-04-26T06:18:21.173Z,9.75
2018-04-26T06:18:55.040Z,10.25
2018-04-26T06:19:28.930Z,11.20
2018-04-26T06:20:02.935Z,11.02
2018-04-26T06:20:36.873Z,12.02
2018-04-26T06:21:10.799Z,11.23
2018-04-26T06:21:44.672Z,10.27
2018-04-26T06:22:18.589Z,9.10
2018-04-26T06:22:52.505Z,10.35
2018-04-26T06:23:26.432Z,11.88
2018-04-26T06:24:00.297Z,10.40
2018-04-26T06:24:34.176Z,11.15
2018-04-26T06:25:08.318Z,10.48
2018-04-26T06:25:42.226Z,9.80
2018-04-26T06:26:16.147Z,10.45
2018-04-26T06:26:49.999Z,10.55
2018-04-26T06:27:23.852Z,10.00
2018-04-26T06:27:57.724Z,10.02
2018-04-26T06:28:31.669Z,10.18
2018-04-26T06:29:05.537Z,9.57
2018-04-26T06:29:39.453Z,11.15
2018-04-26T06:30:13.371Z,10.30
2018-04-26T06:30:47.297Z,9.90
2018-04-26T06:31:21.174Z,10.48
2018-04-26T06:31:55.041Z,10.10
2018-04-26T06:32:28.908Z,9.55
2018-04-26T06:33:02.783Z,9.82
2018-04-26T06:33:36.704Z,10.02
2018-04-26T06:34:10.588Z,10.25
2018-04-26T06:34:44.468Z,9.63
2018-04-26T06:35:18.439Z,10.10
2018-04-26T06:35:52.369Z,10.35
2018-04-26T06:36:26.277Z,10.15
2018-04-26T06:37:00.248Z,10.38
2018-04-26T06:37:34.246Z,11.52
2018-04-26T06:38:08.131Z,10.30
2018-04-26T06:38:42.015Z,10.40
2018-04-26T06:39:16.016Z,10.57
2018-04-26T06:39:49.880Z,11.02
2018-04-26T06:40:24.061Z,11.43
2018-04-26T06:40:57.940Z,11.15
2018-04-26T06:41:31.803Z,10.90
2018-04-26T06:42:05.748Z,12.45
2018-04-26T06:42:39.624Z,12.23
2018-04-26T06:43:13.513Z,11.25
2018-04-26T06:43:47.377Z,11.15
2018-04-26T06:44:21.243Z,11.00
2018-04-26T06:44:55.102Z,10.27
2018-04-26T06:45:28.977Z,11.35
2018-04-26T06:46:02.880Z,11.52
2018-04-26T06:46:36.935Z,11.98
2018-04-26T06:47:10.906Z,12.05
2018-04-26T06:47:44.774Z,11.63
2018-04-26T06:48:18.667Z,11.10
2018-04-26T06:48:52.716Z,10.80
2018-04-26T06:49:26.716Z,11.73
2018-04-26T06:50:00.685Z,11.55
2018-04-26T06:50:34.886Z,10.48
2018-04-26T06:51:09.156Z,11.68
2018-04-26T06:51:43.049Z,10.88
2018-04-26T06:52:17.014Z,11.23
2018-04-26T06:52:50.891Z,10.40
2018-04-26T06:53:24.825Z,11.40
2018-04-26T06:53:59.584Z,11.32
2018-04-26T06:54:33.666Z,12.73
2018-04-26T06:55:07.703Z,12.48
2018-04-26T06:55:41.584Z,12.10
2018-04-26T06:56:15.443Z,11.55
2018-04-26T06:56:49.320Z,11.50
2018-04-26T06:57:23.216Z,11.45
2018-04-26T06:57:57.102Z,12.35
2018-04-26T06:58:30.973Z,11.95
2018-04-26T06:59:04.869Z,13.48
2018-04-26T06:59:38.939Z,12.93
2018-04-26T07:00:12.804Z,12.48
2018-04-26T07:00:46.752Z,12.35
2018-04-26T07:01:20.634Z,12.27
2018-04-26T07:01:54.516Z,13.10
2018-04-26T07:02:29.454Z,16.73
2018-04-26T07:03:03.427Z,13.65
2018-04-26T07:03:37.324Z,13.40
2018-04-26T07:04:11.908Z,12.77
2018-04-26T07:04:49.266Z,11.93
2018-04-26T07:05:23.133Z,12.37
2018-04-26T07:05:56.992Z,11.85
2018-04-26T07:06:30.903Z,12.43
2018-04-26T07:07:04.781Z,12.05
2018-04-26T07:07:38.653Z,11.93
2018-04-26T07:08:12.512Z,11.77
2018-04-26T07:08:46.380Z,12.07
2018-04-26T07:09:20.289Z,15.38
2018-04-26T07:09:54.421Z,13.55
2018-04-26T07:10:28.336Z,12.88
2018-04-26T07:11:02.209Z,14.85
2018-04-26T07:11:36.161Z,13.23
2018-04-26T07:12:10.344Z,13.27
2018-04-26T07:12:44.228Z,13.85
2018-04-26T07:13:18.157Z,15.18
2018-04-26T07:13:52.000Z,15.20
2018-04-26T07:14:25.875Z,14.23
2018-04-26T07:14:59.769Z,14.07
2018-04-26T07:15:33.706Z,12.88
2018-04-26T07:16:08.371Z,13.20
2018-04-26T07:16:43.468Z,13.85
2018-04-26T07:17:17.683Z,14.80
2018-04-26T07:18:03.959Z,16.33
2018-04-26T07:18:38.513Z,16.35
2018-04-26T07:19:12.804Z,16.35
2018-04-26T07:19:46.701Z,15.10
2018-04-26T07:20:21.082Z,13.65
2018-04-26T07:20:54.963Z,15.43
2018-04-26T07:21:28.856Z,14.05
2018-04-26T07:22:02.739Z,14.00
2018-04-26T07:22:36.623Z,13.73
2018-04-26T07:23:10.488Z,14.43
2018-04-26T07:23:44.369Z,14.23
2018-04-26T07:24:18.271Z,14.25
2018-04-26T07:24:52.188Z,13.70
2018-04-26T07:25:26.056Z,15.43
2018-04-26T07:25:59.920Z,15.48
2018-04-26T07:26:33.780Z,15.15
2018-04-26T07:27:07.700Z,14.00
2018-04-26T07:27:41.559Z,13.43
2018-04-26T07:28:15.421Z,14.87